createdAt,value
2016-01-16T00:00:57.494Z,33.31
2016-01-16T00:01:57.106Z,33.31
2016-01-16T00:02:56.874Z,33.21
2016-01-16T00:03:56.877Z,33.12
2016-01-16T00:04:56.879Z,33.5
2016-01-16T00:05:56.898Z,33.12
2016-01-16T00:06:57.134Z,33.5
2016-01-16T00:08:56.922Z,33.59
2016-01-16T00:09:56.940Z,33.79
2016-01-16T00:10:56.942Z,33.79
2016-01-16T00:11:56.946Z,33.89
2016-01-16T00:13:11.059Z,33.98
2016-01-16T00:13:56.980Z,33.89
2016-01-16T00:14:56.999Z,33.98
2016-01-16T00:15:57.017Z,33.89
2016-01-16T00:16:57.004Z,33.89
2016-01-16T00:17:56.990Z,33.98
2016-01-16T00:18:57.587Z,33.89
2016-01-16T00:19:57.012Z,34.17
2016-01-16T00:20:57.015Z,33.89
2016-01-16T00:21:57.456Z,34.17
2016-01-16T00:22:57.223Z,34.27
2016-01-16T00:23:57.257Z,34.08
2016-01-16T00:24:57.057Z,34.08
2016-01-16T00:25:57.059Z,34.08
2016-01-16T00:26:57.047Z,34.17
2016-01-16T00:27:57.065Z,34.37
2016-01-16T00:28:57.100Z,34.27
2016-01-16T00:29:57.118Z,34.27
2016-01-16T00:31:57.109Z,34.37
2016-01-16T00:32:57.314Z,34.17
2016-01-16T00:33:57.348Z,34.17
2016-01-16T00:34:57.132Z,34.27
2016-01-16T00:35:57.384Z,34.27
2016-01-16T00:36:57.153Z,34.27
2016-01-16T00:38:11.250Z,34.27
2016-01-16T00:38:57.158Z,34.27
2016-01-16T00:39:57.161Z,34.46
2016-01-16T00:40:57.179Z,34.37
2016-01-16T00:41:57.214Z,34.37
2016-01-16T00:42:57.216Z,34.37
2016-01-16T00:43:57.423Z,34.27
2016-01-16T00:44:57.204Z,34.37
2016-01-16T00:45:57.409Z,34.37
2016-01-16T00:46:57.209Z,34.35
2016-01-16T00:47:57.227Z,34.37
2016-01-16T00:49:11.342Z,34.46
2016-01-16T00:49:57.248Z,34.27
2016-01-16T00:50:57.470Z,34.27
2016-01-16T00:51:57.270Z,34.54
2016-01-16T00:52:57.491Z,34.17
2016-01-16T00:53:57.916Z,34.56
2016-01-16T00:54:57.497Z,34.45
2016-01-16T00:55:57.297Z,34.54
2016-01-16T00:56:57.314Z,34.46
2016-01-16T00:58:57.305Z,34.56
2016-01-16T00:59:57.526Z,34.64
2016-01-16T01:01:57.344Z,34.64
2016-01-16T01:02:57.581Z,34.64
2016-01-16T01:03:57.349Z,34.64
2016-01-16T01:04:57.368Z,34.64
2016-01-16T01:05:57.590Z,34.64
2016-01-16T01:06:57.390Z,34.74
2016-01-16T01:07:57.626Z,34.64
2016-01-16T01:08:57.411Z,34.64
2016-01-16T01:09:57.414Z,34.64
2016-01-16T01:11:11.509Z,34.54
2016-01-16T01:11:57.434Z,34.64
2016-01-16T01:12:57.453Z,34.64
2016-01-16T01:13:57.440Z,34.64
2016-01-16T01:14:57.474Z,34.54
2016-01-16T01:16:11.555Z,34.64
2016-01-16T01:16:57.477Z,34.64
2016-01-16T01:17:57.495Z,34.54
2016-01-16T01:18:57.467Z,34.64
2016-01-16T01:20:11.581Z,34.54
2016-01-16T01:20:57.503Z,34.64
2016-01-16T01:21:57.366Z,34.54
2016-01-16T01:22:57.509Z,34.45
2016-01-16T01:23:57.527Z,34.54
2016-01-16T01:24:57.514Z,34.54
2016-01-16T01:25:57.735Z,34.54
2016-01-16T01:26:57.551Z,34.64
2016-01-16T01:27:57.569Z,34.54
2016-01-16T01:28:57.572Z,34.54
2016-01-16T01:29:57.840Z,34.54
2016-01-16T01:30:57.577Z,34.54
2016-01-16T01:31:57.580Z,34.54
2016-01-16T01:32:57.598Z,34.54
2016-01-16T01:33:57.617Z,34.45
2016-01-16T01:34:57.838Z,34.54
2016-01-16T01:35:57.622Z,34.54
2016-01-16T01:36:57.606Z,34.54
2016-01-16T01:37:57.652Z,34.54
2016-01-16T01:38:57.781Z,34.74
2016-01-16T01:40:11.774Z,34.54
2016-01-16T01:41:57.670Z,34.45
2016-01-16T01:42:57.657Z,34.54
2016-01-16T01:43:57.707Z,34.54
2016-01-16T01:44:57.709Z,34.54
2016-01-16T01:45:57.696Z,34.45
2016-01-16T01:46:58.183Z,34.54
2016-01-16T01:47:57.937Z,34.54
2016-01-16T01:48:57.924Z,34.54
2016-01-16T01:49:57.913Z,34.54
2016-01-16T01:50:57.962Z,34.54
2016-01-16T01:51:57.732Z,34.54
2016-01-16T01:53:11.843Z,34.54
2016-01-16T01:53:57.752Z,34.45
2016-01-16T01:54:57.740Z,34.45
2016-01-16T01:55:57.960Z,34.45
2016-01-16T01:56:57.292Z,34.45
2016-01-16T01:57:57.795Z,34.45
2016-01-16T01:58:57.781Z,34.45
2016-01-16T01:59:57.784Z,34.54
2016-01-16T02:00:57.802Z,34.54
2016-01-16T02:01:57.821Z,34.45
2016-01-16T02:02:57.808Z,34.45
2016-01-16T02:03:57.811Z,34.45
2016-01-16T02:04:57.829Z,34.45
2016-01-16T02:05:57.831Z,34.45
2016-01-16T02:06:57.841Z,34.45
2016-01-16T02:07:57.834Z,34.45
2016-01-16T02:08:57.826Z,34.45
2016-01-16T02:09:58.068Z,34.92
2016-01-16T02:10:57.654Z,34.35
2016-01-16T02:11:57.839Z,35.02
2016-01-16T02:12:58.027Z,34.92
2016-01-16T02:13:57.837Z,34.45
2016-01-16T02:14:57.852Z,34.45
2016-01-16T02:15:57.835Z,34.92
2016-01-16T02:16:57.852Z,34.45
2016-01-16T02:17:58.040Z,34.45
2016-01-16T02:18:57.869Z,34.45
2016-01-16T02:20:11.964Z,34.54
2016-01-16T02:20:57.857Z,34.45
2016-01-16T02:21:58.311Z,34.45
2016-01-16T02:22:57.908Z,34.45
2016-01-16T02:23:57.894Z,34.45
2016-01-16T02:24:57.897Z,35.02
2016-01-16T02:26:57.949Z,34.45
2016-01-16T02:27:57.935Z,34.45
2016-01-16T02:29:12.235Z,34.54
2016-01-16T02:29:57.941Z,34.45
2016-01-16T02:30:57.944Z,34.53
2016-01-16T02:31:57.962Z,34.43
2016-01-16T02:32:57.965Z,34.45
2016-01-16T02:33:57.998Z,34.43
2016-01-16T02:34:57.501Z,34.45
2016-01-16T02:35:58.160Z,34.53
2016-01-16T02:37:58.010Z,34.33
2016-01-16T02:38:58.029Z,34.43
2016-01-16T02:39:58.234Z,34.33
2016-01-16T02:40:58.049Z,34.33
2016-01-16T02:41:58.021Z,34.43
2016-01-16T02:42:58.242Z,34.43
2016-01-16T02:44:58.248Z,34.91
2016-01-16T02:45:58.859Z,34.33
2016-01-16T02:46:58.065Z,34.43
2016-01-16T02:47:58.303Z,34.43
2016-01-16T02:48:58.117Z,34.33
2016-01-16T02:49:58.323Z,34.72
2016-01-16T02:50:58.091Z,34.43
2016-01-16T02:51:58.094Z,34.62
2016-01-16T02:52:58.347Z,34.62
2016-01-16T02:53:58.522Z,34.81
2016-01-16T02:56:58.155Z,34.53
2016-01-16T02:57:58.189Z,34.43
2016-01-16T02:58:58.176Z,34.33
2016-01-16T02:59:58.179Z,34.81
2016-01-16T03:00:58.181Z,34.53
2016-01-16T03:01:58.200Z,34.81
2016-01-16T03:02:58.186Z,34.43
2016-01-16T03:03:58.393Z,34.91
2016-01-16T03:04:58.208Z,34.43
2016-01-16T03:05:57.724Z,34.43
2016-01-16T03:06:58.210Z,34.43
2016-01-16T03:07:58.229Z,34.43
2016-01-16T03:08:58.841Z,35
2016-01-16T03:09:58.266Z,34.62
2016-01-16T03:10:58.269Z,34.81
2016-01-16T03:12:12.349Z,34.81
2016-01-16T03:12:58.321Z,34.53
2016-01-16T03:13:58.293Z,34.81
2016-01-16T03:14:58.263Z,34.53
2016-01-16T03:15:58.704Z,34.43
2016-01-16T03:16:58.302Z,34.91
2016-01-16T03:17:58.022Z,34.33
2016-01-16T03:19:58.340Z,34.43
2016-01-16T03:20:58.562Z,34.43
2016-01-16T03:21:57.846Z,34.43
2016-01-16T03:22:58.333Z,34.53
2016-01-16T03:23:58.383Z,34.53
2016-01-16T03:24:58.338Z,34.43
2016-01-16T03:25:58.560Z,34.53
2016-01-16T03:26:58.360Z,34.53
2016-01-16T03:27:58.362Z,34.72
2016-01-16T03:29:58.398Z,34.62
2016-01-16T03:30:58.401Z,34.62
2016-01-16T03:31:58.405Z,34.62
2016-01-16T03:33:58.426Z,34.62
2016-01-16T03:34:58.632Z,34.62
2016-01-16T03:35:58.431Z,34.53
2016-01-16T03:36:58.434Z,34.62
2016-01-16T03:37:58.655Z,34.53
2016-01-16T03:38:58.627Z,34.62
2016-01-16T03:39:58.442Z,34.62
2016-01-16T03:40:58.507Z,34.62
2016-01-16T03:41:59.307Z,34.53
2016-01-16T03:43:12.576Z,34.43
2016-01-16T03:44:12.578Z,34.72
2016-01-16T03:44:58.706Z,34.62
2016-01-16T03:45:58.505Z,34.62
2016-01-16T03:46:58.524Z,34.53
2016-01-16T03:47:58.526Z,34.43
2016-01-16T03:49:12.623Z,34.62
2016-01-16T03:49:58.529Z,34.62
2016-01-16T03:50:58.548Z,34.62
2016-01-16T03:51:58.534Z,34.62
2016-01-16T03:52:58.756Z,34.62
2016-01-16T03:53:58.790Z,34.72
2016-01-16T03:54:58.558Z,34.72
2016-01-16T03:55:58.561Z,34.62
2016-01-16T03:56:58.111Z,34.53
2016-01-16T03:57:58.754Z,34.61
2016-01-16T03:58:58.601Z,34.62
2016-01-16T03:59:58.620Z,34.62
2016-01-16T04:00:58.622Z,34.62
2016-01-16T04:01:58.625Z,34.7
2016-01-16T04:02:58.846Z,34.62
2016-01-16T04:03:58.630Z,34.61
2016-01-16T04:04:58.633Z,34.62
2016-01-16T04:05:58.838Z,34.61
2016-01-16T04:06:58.841Z,34.62
2016-01-16T04:07:58.672Z,34.62
2016-01-16T04:08:58.722Z,34.72
2016-01-16T04:09:58.662Z,34.72
2016-01-16T04:10:58.681Z,34.72
2016-01-16T04:11:58.684Z,34.62
2016-01-16T04:12:58.702Z,34.51
2016-01-16T04:13:58.720Z,34.62
2016-01-16T04:14:58.722Z,34.61
2016-01-16T04:15:58.960Z,34.61
2016-01-16T04:16:58.728Z,34.7
2016-01-16T04:18:58.734Z,34.61
2016-01-16T04:19:58.268Z,34.61
2016-01-16T04:20:58.770Z,34.61
2016-01-16T04:21:58.758Z,34.61
2016-01-16T04:22:58.776Z,34.61
2016-01-16T04:23:58.779Z,34.7
2016-01-16T04:24:58.969Z,34.51
2016-01-16T04:25:58.800Z,34.61
2016-01-16T04:26:58.787Z,34.61
2016-01-16T04:27:59.024Z,34.51
2016-01-16T04:28:58.808Z,34.61
2016-01-16T04:29:58.811Z,34.61
2016-01-16T04:30:58.860Z,34.41
2016-01-16T04:32:12.926Z,34.22
2016-01-16T04:32:58.848Z,34.22
2016-01-16T04:33:58.851Z,34.22
2016-01-16T04:34:58.869Z,34.22
2016-01-16T04:35:58.700Z,34.22
2016-01-16T04:36:58.874Z,34.22
2016-01-16T04:37:58.908Z,34.51
2016-01-16T04:39:58.883Z,34.31
2016-01-16T04:40:58.916Z,34.03
2016-01-16T04:41:58.919Z,34.22
2016-01-16T04:42:58.953Z,34.22
2016-01-16T04:43:58.941Z,34.31
2016-01-16T04:44:59.116Z,34.03
2016-01-16T04:45:58.916Z,34.22
2016-01-16T04:46:58.950Z,34.22
2016-01-16T04:47:58.936Z,34.22
2016-01-16T04:48:58.969Z,34.31
2016-01-16T04:49:58.957Z,34.31
2016-01-16T04:50:58.960Z,34.22
2016-01-16T04:51:58.963Z,34.03
2016-01-16T04:52:59.169Z,34.22
2016-01-16T04:53:58.984Z,34.22
2016-01-16T04:54:59.018Z,34.22
2016-01-16T04:55:59.005Z,34.12
2016-01-16T04:56:59.007Z,34.03
2016-01-16T04:57:59.010Z,34.22
2016-01-16T04:58:59.013Z,34.22
2016-01-16T04:59:58.563Z,34.31
2016-01-16T05:00:59.049Z,34.31
2016-01-16T05:01:59.069Z,34.22
2016-01-16T05:02:59.040Z,34.51
2016-01-16T05:03:59.074Z,34.22
2016-01-16T05:04:59.076Z,34.31
2016-01-16T05:06:59.066Z,34.12
2016-01-16T05:07:59.116Z,34.22
2016-01-16T05:08:59.291Z,34.22
2016-01-16T05:09:59.106Z,34.41
2016-01-16T05:10:59.109Z,34.51
2016-01-16T05:11:59.330Z,34.51
2016-01-16T05:12:59.130Z,34.41
2016-01-16T05:13:59.148Z,34.22
2016-01-16T05:14:59.135Z,34.22
2016-01-16T05:15:59.168Z,34.31
2016-01-16T05:16:59.140Z,34.22
2016-01-16T05:17:59.174Z,34.12
2016-01-16T05:18:59.146Z,34.22
2016-01-16T05:20:13.274Z,34.31
2016-01-16T05:20:59.182Z,34.31
2016-01-16T05:21:59.185Z,34.31
2016-01-16T05:22:59.454Z,34.31
2016-01-16T05:23:59.188Z,34.22
2016-01-16T05:24:59.206Z,34.31
2016-01-16T05:25:59.209Z,34.22
2016-01-16T05:26:59.228Z,34.41
2016-01-16T05:27:59.203Z,34.31
2016-01-16T05:28:59.222Z,34.22
2016-01-16T05:29:59.245Z,34.51
2016-01-16T05:30:59.248Z,34.41
2016-01-16T05:31:59.266Z,34.61
2016-01-16T05:33:59.256Z,34.22
2016-01-16T05:34:59.274Z,34.22
2016-01-16T05:35:59.511Z,34.31
2016-01-16T05:36:59.280Z,34.31
2016-01-16T05:37:59.533Z,34.03
2016-01-16T05:38:59.489Z,34.22
2016-01-16T05:39:59.319Z,33.54
2016-01-16T05:40:59.494Z,33.26
2016-01-16T05:41:59.310Z,33.16
2016-01-16T05:42:59.328Z,32.97
2016-01-16T05:43:59.330Z,33.16
2016-01-16T05:44:59.349Z,32.87
2016-01-16T05:45:59.352Z,32.87
2016-01-16T05:46:59.776Z,32.68
2016-01-16T05:49:59.393Z,32.87
2016-01-16T05:50:59.382Z,33.37
2016-01-16T05:51:59.399Z,32.89
2016-01-16T05:52:59.418Z,32.79
2016-01-16T05:53:59.421Z,32.98
2016-01-16T05:54:59.406Z,33.08
2016-01-16T05:55:59.628Z,32.79
2016-01-16T05:56:59.429Z,32.89
2016-01-16T05:57:59.446Z,33.08
2016-01-16T05:58:59.621Z,32.98
2016-01-16T05:59:59.437Z,32.7
2016-01-16T06:00:59.470Z,32.7
2016-01-16T06:01:59.692Z,32.6
2016-01-16T06:02:59.476Z,32.31
2016-01-16T06:03:59.462Z,32.51
2016-01-16T06:04:59.684Z,32.79
2016-01-16T06:05:59.515Z,32.41
2016-01-16T06:06:59.550Z,32.41
2016-01-16T06:07:59.536Z,32.31
2016-01-16T06:08:59.508Z,32.51
2016-01-16T06:09:59.525Z,32.41
2016-01-16T06:10:59.748Z,32.12
2016-01-16T06:12:59.566Z,31.95
2016-01-16T06:13:59.974Z,31.95
2016-01-16T06:14:59.555Z,32.04
2016-01-16T06:15:59.573Z,32.52
2016-01-16T06:17:00.013Z,31.95
2016-01-16T06:17:59.611Z,32.04
2016-01-16T06:19:13.691Z,32.04
2016-01-16T06:20:00.271Z,31.95
2016-01-16T06:20:59.633Z,31.95
2016-01-16T06:21:59.636Z,31.65
2016-01-16T06:22:59.639Z,31.65
2016-01-16T06:24:00.908Z,31.65
2016-01-16T06:24:59.644Z,31.75
2016-01-16T06:25:59.679Z,31.95
2016-01-16T06:26:59.681Z,31.56
2016-01-16T06:27:59.840Z,31.56
2016-01-16T06:28:59.218Z,31.65
2016-01-16T06:29:59.674Z,31.85
2016-01-16T06:30:59.707Z,31.56
2016-01-16T06:31:59.710Z,31.46
2016-01-16T06:32:59.885Z,31.67
2016-01-16T06:34:14.012Z,31.67
2016-01-16T06:34:59.921Z,31.77
2016-01-16T06:35:59.737Z,31.96
2016-01-16T06:36:59.740Z,31.87
2016-01-16T06:37:59.759Z,31.96
2016-01-16T06:38:59.761Z,31.96
2016-01-16T06:39:59.763Z,31.87
2016-01-16T06:40:59.813Z,31.96
2016-01-16T06:41:59.815Z,32.06
2016-01-16T06:42:59.787Z,31.87
2016-01-16T06:43:59.820Z,32.15
2016-01-16T06:44:59.808Z,32.34
2016-01-16T06:45:59.826Z,32.06
2016-01-16T06:46:59.844Z,32.26
2016-01-16T06:47:59.926Z,32.07
2016-01-16T06:48:59.834Z,31.98
2016-01-16T06:50:00.040Z,32.56
2016-01-16T06:51:00.058Z,32.46
2016-01-16T06:51:59.874Z,32.75
2016-01-16T06:53:00.064Z,32.46
2016-01-16T06:53:59.894Z,32.36
2016-01-16T06:54:59.430Z,32.17
2016-01-16T06:55:59.900Z,32.17
2016-01-16T06:56:59.918Z,32.17
2016-01-16T06:57:59.921Z,31.98
2016-01-16T06:58:59.940Z,31.59
2016-01-16T06:59:59.943Z,31.69
2016-01-16T07:00:59.946Z,31.69
2016-01-16T07:01:59.963Z,31.49
2016-01-16T07:02:59.982Z,31.59
2016-01-16T07:03:59.984Z,31.49
2016-01-16T07:04:59.988Z,31.49
2016-01-16T07:06:00.005Z,31.49
2016-01-16T07:07:00.227Z,31.69
2016-01-16T07:08:00.230Z,31.4
2016-01-16T07:09:00.029Z,31.22
2016-01-16T07:10:00.032Z,30.91
2016-01-16T07:11:00.051Z,30.93
2016-01-16T07:12:14.350Z,31.03
2016-01-16T07:13:00.056Z,31.12
2016-01-16T07:14:00.137Z,31.03
2016-01-16T07:15:14.171Z,30.83
2016-01-16T07:15:59.923Z,30.83
2016-01-16T07:17:00.098Z,30.83
2016-01-16T07:18:00.304Z,30.74
2016-01-16T07:19:00.119Z,30.83
2016-01-16T07:20:00.122Z,30.83
2016-01-16T07:21:00.139Z,30.83
2016-01-16T07:22:00.159Z,30.83
2016-01-16T07:23:00.176Z,30.83
2016-01-16T07:24:00.164Z,30.64
2016-01-16T07:25:00.167Z,30.83
2016-01-16T07:26:00.419Z,30.45
2016-01-16T07:27:00.203Z,30.55
2016-01-16T07:28:00.408Z,30.55
2016-01-16T07:29:00.208Z,30.55
2016-01-16T07:30:00.212Z,30.45
2016-01-16T07:31:00.448Z,30.45
2016-01-16T07:32:00.230Z,30.26
2016-01-16T07:34:00.875Z,30.35
2016-01-16T07:35:00.472Z,30.46
2016-01-16T07:36:00.256Z,30.16
2016-01-16T07:37:00.291Z,30.64
2016-01-16T07:38:00.277Z,30.64
2016-01-16T07:39:00.296Z,30.45
2016-01-16T07:40:00.313Z,30.46
2016-01-16T07:41:00.332Z,30.08
2016-01-16T07:42:00.335Z,30.27
2016-01-16T07:43:00.337Z,30.37
2016-01-16T07:44:00.355Z,30.46
2016-01-16T07:45:00.358Z,30.46
2016-01-16T07:46:00.361Z,30.18
2016-01-16T07:47:00.364Z,30.18
2016-01-16T07:48:00.382Z,30.18
2016-01-16T07:49:00.604Z,30.08
2016-01-16T07:50:00.404Z,30.27
2016-01-16T07:51:00.421Z,30.08
2016-01-16T07:52:00.643Z,30.08
2016-01-16T07:53:00.458Z,30.37
2016-01-16T07:54:00.664Z,30.08
2016-01-16T07:55:00.448Z,30.27
2016-01-16T07:56:00.467Z,30.27
2016-01-16T07:57:00.704Z,30.18
2016-01-16T07:58:00.706Z,30.08
2016-01-16T07:59:00.506Z,30.18
2016-01-16T08:00:00.508Z,29.98
2016-01-16T08:01:00.730Z,29.98
2016-01-16T08:02:00.373Z,30.18
2016-01-16T08:03:00.767Z,30.18
2016-01-16T08:05:00.600Z,29.6
2016-01-16T08:06:14.668Z,29.6
2016-01-16T08:07:00.590Z,29.5
2016-01-16T08:08:00.764Z,29.79
2016-01-16T08:09:00.986Z,30.37
2016-01-16T08:10:00.613Z,30.46
2016-01-16T08:11:00.616Z,30.46
2016-01-16T08:12:00.635Z,30.18
2016-01-16T08:13:00.606Z,30.46
2016-01-16T08:14:00.640Z,30.66
2016-01-16T08:15:00.658Z,30.66
2016-01-16T08:16:00.879Z,30.94
2016-01-16T08:17:00.663Z,30.94
2016-01-16T08:18:00.666Z,30.76
2016-01-16T08:19:00.685Z,30.56
2016-01-16T08:20:00.702Z,30.56
2016-01-16T08:21:00.705Z,30.27
2016-01-16T08:22:00.707Z,30.46
2016-01-16T08:23:00.711Z,30.37
2016-01-16T08:24:00.713Z,30.18
2016-01-16T08:25:00.748Z,30.08
2016-01-16T08:26:01.094Z,30.37
2016-01-16T08:27:00.785Z,30.37
2016-01-16T08:28:00.756Z,30.38
2016-01-16T08:29:00.758Z,30.1
2016-01-16T08:30:00.776Z,30.46
2016-01-16T08:31:00.812Z,30.18
2016-01-16T08:32:00.798Z,30.48
2016-01-16T08:33:00.832Z,30.27
2016-01-16T08:35:00.837Z,30.67
2016-01-16T08:36:00.856Z,30.48
2016-01-16T08:38:00.376Z,30.48
2016-01-16T08:39:01.083Z,30.19
2016-01-16T08:40:14.976Z,30.58
2016-01-16T08:41:01.120Z,30.67
2016-01-16T08:42:00.903Z,30.29
2016-01-16T08:43:00.937Z,30.38
2016-01-16T08:44:00.939Z,30.48
2016-01-16T08:45:00.911Z,30.67
2016-01-16T08:46:00.945Z,30.67
2016-01-16T08:47:00.934Z,30.48
2016-01-16T08:48:00.952Z,30.87
2016-01-16T08:49:00.954Z,30.48
2016-01-16T08:50:01.207Z,30.87
2016-01-16T08:51:00.975Z,30.38
2016-01-16T08:52:00.979Z,30.58
2016-01-16T08:53:01.028Z,30.58
2016-01-16T08:54:01.218Z,30.38
2016-01-16T08:55:01.220Z,30.77
2016-01-16T08:56:01.020Z,30.67
2016-01-16T08:57:00.786Z,30.48
2016-01-16T08:58:01.245Z,30.58
2016-01-16T08:59:01.060Z,30.58
2016-01-16T09:00:01.062Z,30.58
2016-01-16T09:01:01.081Z,30.77
2016-01-16T09:02:01.089Z,30.48
2016-01-16T09:03:01.091Z,30.77
2016-01-16T09:04:01.094Z,31.06
2016-01-16T09:05:01.113Z,30.77
2016-01-16T09:06:01.349Z,30.87
2016-01-16T09:07:01.133Z,30.96
2016-01-16T09:08:01.151Z,31.25
2016-01-16T09:09:15.263Z,31.15
2016-01-16T09:10:01.169Z,31.45
2016-01-16T09:11:01.188Z,32.12
2016-01-16T09:12:01.175Z,31.63
2016-01-16T09:13:01.193Z,32.12
2016-01-16T09:14:01.196Z,32.21
2016-01-16T09:15:01.215Z,32.79
2016-01-16T09:16:01.232Z,33.28
2016-01-16T09:18:01.457Z,33.18
2016-01-16T09:19:01.240Z,32.51
2016-01-16T09:20:01.243Z,32.6
2016-01-16T09:21:01.293Z,32.51
2016-01-16T09:22:01.265Z,32.31
2016-01-16T09:23:01.502Z,32.12
2016-01-16T09:24:01.332Z,32.14
2016-01-16T09:25:01.304Z,31.94
2016-01-16T09:26:01.745Z,32.04
2016-01-16T09:27:00.857Z,32.03
2016-01-16T09:28:01.343Z,32.04
2016-01-16T09:29:01.361Z,32.14
2016-01-16T09:30:01.364Z,32.04
2016-01-16T09:31:00.914Z,32.14
2016-01-16T09:32:01.386Z,32.14
2016-01-16T09:33:01.622Z,31.85
2016-01-16T09:34:01.406Z,31.94
2016-01-16T09:36:01.614Z,32.23
2016-01-16T09:37:01.430Z,32.43
2016-01-16T09:38:01.449Z,32.23
2016-01-16T09:39:01.452Z,32.23
2016-01-16T09:40:01.454Z,32.23
2016-01-16T09:41:01.457Z,31.85
2016-01-16T09:42:01.507Z,31.65
2016-01-16T09:43:01.495Z,31.75
2016-01-16T09:44:01.498Z,32.14
2016-01-16T09:45:01.516Z,32.04
2016-01-16T09:46:01.723Z,31.75
2016-01-16T09:47:01.537Z,31.65
2016-01-16T09:48:01.462Z,31.65
2016-01-16T09:49:01.543Z,31.75
2016-01-16T09:50:01.561Z,31.85
2016-01-16T09:51:01.564Z,31.75
2016-01-16T09:52:01.582Z,31.75
2016-01-16T09:53:01.803Z,31.75
2016-01-16T09:54:15.697Z,31.94
2016-01-16T09:55:01.837Z,31.75
2016-01-16T09:56:01.840Z,32.04
2016-01-16T09:57:01.656Z,32.04
2016-01-16T09:58:01.627Z,32.43
2016-01-16T09:59:01.676Z,32.14
2016-01-16T10:00:01.679Z,32.04
2016-01-16T10:01:01.870Z,32.52
2016-01-16T10:02:01.700Z,32.71
2016-01-16T10:03:01.687Z,32.52
2016-01-16T10:04:01.706Z,32.43
2016-01-16T10:05:01.708Z,32.62
2016-01-16T10:06:01.930Z,33
2016-01-16T10:07:01.761Z,33.29
2016-01-16T10:08:01.747Z,32.91
2016-01-16T10:09:01.766Z,33.29
2016-01-16T10:10:01.753Z,33.29
2016-01-16T10:11:01.772Z,33.39
2016-01-16T10:12:01.774Z,33.48
2016-01-16T10:13:02.215Z,34.26
2016-01-16T10:14:01.796Z,33.48
2016-01-16T10:15:01.830Z,33.29
2016-01-16T10:16:01.816Z,33.39
2016-01-16T10:17:01.835Z,33.29
2016-01-16T10:18:01.837Z,33.2
2016-01-16T10:19:02.465Z,33.48
2016-01-16T10:20:01.875Z,33.87
2016-01-16T10:21:01.878Z,33.97
2016-01-16T10:22:01.912Z,33.87
2016-01-16T10:23:01.900Z,33.97
2016-01-16T10:24:15.995Z,34.16
2016-01-16T10:25:01.920Z,33.87
2016-01-16T10:26:02.126Z,33.87
2016-01-16T10:27:01.942Z,33.97
2016-01-16T10:28:01.928Z,33.97
2016-01-16T10:29:01.947Z,34.06
2016-01-16T10:30:01.950Z,33.87
2016-01-16T10:31:01.984Z,34.06
2016-01-16T10:32:01.986Z,33.97
2016-01-16T10:35:02.010Z,34.56
2016-01-16T10:37:26.516Z,34.56
2016-01-16T10:38:11.613Z,35.44
2016-01-16T10:39:25.725Z,36.21
2016-01-16T10:40:11.821Z,36.38
2016-01-16T10:42:25.749Z,36.69
2016-01-16T10:44:11.879Z,36.21
2016-01-16T10:46:26.196Z,35.72
2016-01-16T10:47:25.809Z,35.72
2016-01-16T10:48:26.015Z,36.5
2016-01-16T10:49:12.124Z,36.4
2016-01-16T10:50:11.580Z,36.4
2016-01-16T10:51:26.036Z,36.69
2016-01-16T10:52:11.977Z,36.88
2016-01-16T10:53:26.073Z,37.08
2016-01-16T10:54:12.014Z,37.27
2016-01-16T10:55:25.891Z,37.56
2016-01-16T10:56:11.831Z,37.56
2016-01-16T10:57:12.616Z,37.37
2016-01-16T10:58:12.618Z,37.37
2016-01-16T11:00:12.046Z,38.33
2016-01-16T11:01:26.142Z,38.53
2016-01-16T11:03:12.835Z,38.33
2016-01-16T11:04:26.588Z,39.11
2016-01-16T11:06:12.141Z,38.62
2016-01-16T11:09:34.539Z,39.87
2016-01-16T11:10:43.823Z,39.87
2016-01-16T11:13:29.936Z,39.97
2016-01-16T11:14:43.829Z,40.07
2016-01-16T11:15:43.629Z,40.26
2016-01-16T11:17:32.952Z,40.55
2016-01-16T11:18:30.122Z,40.45
2016-01-16T11:19:30.353Z,40.55
2016-01-16T11:20:43.835Z,40.75
2016-01-16T11:21:43.643Z,41.33
2016-01-16T11:22:29.956Z,41.33
2016-01-16T11:24:29.770Z,41.91
2016-01-16T11:25:29.567Z,41.23
2016-01-16T11:26:29.584Z,40.75
2016-01-16T11:28:29.618Z,40.07
2016-01-16T11:29:29.619Z,40.36
2016-01-16T11:30:29.621Z,40.17
2016-01-16T11:31:30.890Z,39.29
2016-01-16T11:33:29.191Z,38.23
2016-01-16T11:34:29.662Z,37.17
2016-01-16T11:35:29.666Z,37.08
2016-01-16T11:36:29.684Z,36.79
2016-01-16T11:37:29.702Z,37.56
2016-01-16T11:38:29.721Z,38.04
2016-01-16T11:39:29.707Z,37.95
2016-01-16T11:41:30.557Z,38.04
2016-01-16T11:42:29.966Z,37.75
2016-01-16T11:43:29.797Z,37.85
2016-01-16T11:44:29.300Z,37.65
2016-01-16T11:45:30.037Z,37.27
2016-01-16T11:46:43.883Z,37.46
2016-01-16T11:47:29.792Z,37.37
2016-01-16T11:48:29.904Z,37.25
2016-01-16T11:49:29.829Z,37.08
2016-01-16T11:50:29.848Z,37.46
2016-01-16T11:52:29.821Z,37.17
2016-01-16T11:54:29.873Z,37.17
2016-01-16T11:55:29.939Z,36.87
2016-01-16T11:56:29.911Z,36.96
2016-01-16T11:58:29.916Z,36.69
2016-01-16T11:59:29.903Z,36.88
2016-01-16T12:00:30.125Z,36.38
2016-01-16T12:01:30.189Z,36.48
2016-01-16T12:02:29.958Z,36.38
2016-01-16T12:03:30.352Z,36.48
2016-01-16T12:04:29.979Z,36.48
2016-01-16T12:05:30.358Z,36.57
2016-01-16T12:06:30.250Z,36.48
2016-01-16T12:07:30.003Z,36.38
2016-01-16T12:08:29.991Z,36.48
2016-01-16T12:09:30.039Z,36.29
2016-01-16T12:10:30.027Z,36.38
2016-01-16T12:11:30.061Z,36.38
2016-01-16T12:12:30.047Z,36.38
2016-01-16T12:13:30.175Z,36.09
2016-01-16T12:14:30.271Z,36.29
2016-01-16T12:15:30.103Z,36.29
2016-01-16T12:16:30.090Z,36.19
2016-01-16T12:17:30.327Z,35.9
2016-01-16T12:18:30.313Z,36.09
2016-01-16T12:19:30.157Z,36.09
2016-01-16T12:20:30.160Z,36
2016-01-16T12:21:30.132Z,35.9
2016-01-16T12:22:30.166Z,36.09
2016-01-16T12:23:44.249Z,36.09
2016-01-16T12:24:30.171Z,36
2016-01-16T12:25:30.518Z,36.19
2016-01-16T12:26:30.208Z,36.38
2016-01-16T12:27:30.429Z,36
2016-01-16T12:28:30.213Z,36.09
2016-01-16T12:29:44.313Z,35.8
2016-01-16T12:30:30.423Z,36.19
2016-01-16T12:31:30.253Z,36.09
2016-01-16T12:32:44.337Z,35.8
2016-01-16T12:34:30.262Z,35.9
2016-01-16T12:35:30.264Z,36.19
2016-01-16T12:36:30.298Z,36
2016-01-16T12:38:30.287Z,36.17
2016-01-16T12:39:30.322Z,35.71
2016-01-16T12:40:30.324Z,35.9
2016-01-16T12:41:30.342Z,36.19
2016-01-16T12:42:30.345Z,36.19
2016-01-16T12:43:30.363Z,36.27
2016-01-16T12:44:30.585Z,36.07
2016-01-16T12:46:30.371Z,36.07
2016-01-16T12:47:30.389Z,36.27
2016-01-16T12:48:30.596Z,36.36
2016-01-16T12:49:30.411Z,36.07
2016-01-16T12:51:30.416Z,36.36
2016-01-16T12:52:30.497Z,35.69
2016-01-16T12:53:44.533Z,35.98
2016-01-16T12:54:30.471Z,36.27
2016-01-16T12:56:30.477Z,36.07
2016-01-16T12:57:30.479Z,36.27
2016-01-16T12:58:30.029Z,36.07
2016-01-16T12:59:30.516Z,36.46
2016-01-16T13:00:30.721Z,36.65
2016-01-16T13:02:30.522Z,36.85
2016-01-16T13:03:44.636Z,37.33
2016-01-16T13:04:30.542Z,37.13
2016-01-16T13:05:30.592Z,37.33
2016-01-16T13:06:30.579Z,37.62
2016-01-16T13:07:30.597Z,37.71
2016-01-16T13:08:30.600Z,38.01
2016-01-16T13:09:30.806Z,38.39
2016-01-16T13:10:30.621Z,38.39
2016-01-16T13:11:30.655Z,38.78
2016-01-16T13:12:30.642Z,39.16
2016-01-16T13:13:30.629Z,39.16
2016-01-16T13:14:30.836Z,38.78
2016-01-16T13:15:30.853Z,39.16
2016-01-16T13:16:44.765Z,39.36
2016-01-16T13:17:30.687Z,39.64
2016-01-16T13:18:30.674Z,39.36
2016-01-16T13:19:30.724Z,39.84
2016-01-16T13:20:30.711Z,39.84
2016-01-16T13:21:30.730Z,40.22
2016-01-16T13:22:30.748Z,40.03
2016-01-16T13:23:30.749Z,39.74
2016-01-16T13:24:30.753Z,39.74
2016-01-16T13:25:44.868Z,39.74
2016-01-16T13:26:30.743Z,39.94
2016-01-16T13:27:30.791Z,40.42
2016-01-16T13:28:30.779Z,40.42
2016-01-16T13:29:31.016Z,40.03
2016-01-16T13:30:30.800Z,39.94
2016-01-16T13:31:31.021Z,40.42
2016-01-16T13:32:31.055Z,40.53
2016-01-16T13:33:30.855Z,40.12
2016-01-16T13:35:31.079Z,40.15
2016-01-16T13:36:44.959Z,39.47
2016-01-16T13:37:30.865Z,40.05
2016-01-16T13:38:30.868Z,40.15
2016-01-16T13:39:30.871Z,40.34
2016-01-16T13:40:30.952Z,40.15
2016-01-16T13:41:31.111Z,40.22
2016-01-16T13:42:30.911Z,40.34
2016-01-16T13:43:31.054Z,40.24
2016-01-16T13:44:30.931Z,40.15
2016-01-16T13:45:31.559Z,40.05
2016-01-16T13:46:30.968Z,40.34
2016-01-16T13:47:31.206Z,40.15
2016-01-16T13:48:31.192Z,40.34
2016-01-16T13:49:45.291Z,40.15